Time;durP1;ratioP1;P1;durP2;ratioP2;P2;SDS_P1;SDS_P2;PMS_P1;PMS_P2;Temp;Humidity;BMP_temperature;BMP_pressure;BME280_temperature;BME280_humidity;BME280_pressure;Samples;Min_cycle;Max_cycle;Signal;HPM_P1;HPM_P2
2022/04/08 00:01:49;;;;;;;2.70;1.33;;;12.30;37.20;;;;;;5083486;28;20442;-89
2022/04/08 00:04:16;;;;;;;0.97;0.70;;;12.30;36.90;;;;;;5067603;28;20475;-87
2022/04/08 00:06:43;;;;;;;1.83;1.27;;;12.20;36.90;;;;;;5085063;28;20625;-87
2022/04/08 00:09:10;;;;;;;1.27;1.10;;;12.10;37.40;;;;;;5085002;28;21066;-87
2022/04/08 00:11:37;;;;;;;3.40;1.10;;;12.10;37.90;;;;;;5069815;28;20448;-86
2022/04/08 00:14:04;;;;;;;2.90;1.10;;;12.20;37.70;;;;;;5066951;28;20569;-88
2022/04/08 00:16:31;;;;;;;2.67;0.90;;;12.10;37.90;;;;;;5074708;28;20446;-87
2022/04/08 00:18:59;;;;;;;1.90;1.10;;;12.10;38.10;;;;;;5068236;28;20459;-85
2022/04/08 00:21:28;;;;;;;2.90;1.93;;;11.90;38.20;;;;;;5072198;28;20436;-87
2022/04/08 00:23:55;;;;;;;2.90;1.10;;;11.90;38.80;;;;;;5093597;28;20548;-83
2022/04/08 00:26:21;;;;;;;7.93;1.33;;;12.00;38.80;;;;;;5086459;28;20451;-86
2022/04/08 00:28:49;;;;;;;2.80;1.50;;;12.00;38.50;;;;;;5076467;28;20547;-85
2022/04/08 00:31:15;;;;;;;2.37;1.17;;;12.00;38.70;;;;;;5086911;28;20436;-86
2022/04/08 00:33:42;;;;;;;3.80;1.43;;;12.00;39.00;;;;;;5085590;28;20471;-86
2022/04/08 00:36:11;;;;;;;4.60;1.20;;;12.00;38.00;;;;;;5087159;28;20473;-86
2022/04/08 00:38:37;;;;;;;1.30;1.17;;;11.80;38.10;;;;;;5088972;28;20497;-86
2022/04/08 00:41:05;;;;;;;2.30;1.07;;;11.80;38.70;;;;;;5086953;28;20458;-86
2022/04/08 00:43:33;;;;;;;2.77;1.03;;;11.70;38.10;;;;;;5087615;28;20494;-87
2022/04/08 00:46:01;;;;;;;8.60;1.20;;;11.80;38.90;;;;;;5089971;28;20432;-84
2022/04/08 00:48:28;;;;;;;3.50;0.80;;;11.90;38.40;;;;;;5087021;28;20447;-86
2022/04/08 00:50:55;;;;;;;6.33;1.33;;;12.10;38.40;;;;;;5087609;28;20834;-87
2022/04/08 00:53:25;;;;;;;12.50;1.60;;;12.00;37.70;;;;;;5095984;28;20448;-85
2022/04/08 00:55:52;;;;;;;4.70;1.30;;;12.00;37.80;;;;;;5070283;28;20467;-87
2022/04/08 00:58:19;;;;;;;4.07;1.40;;;12.10;37.70;;;;;;5071319;28;20454;-86
2022/04/08 01:00:46;;;;;;;3.87;1.40;;;12.30;38.10;;;;;;5095442;28;20444;-88
2022/04/08 01:03:14;;;;;;;2.30;1.13;;;12.40;37.90;;;;;;5076256;28;20478;-87
2022/04/08 01:05:41;;;;;;;4.20;0.97;;;12.30;38.00;;;;;;5065373;28;20451;-87
2022/04/08 01:08:11;;;;;;;1.03;0.93;;;12.00;37.20;;;;;;5075145;28;20731;-87
2022/04/08 01:10:41;;;;;;;1.30;1.20;;;12.00;37.50;;;;;;5091775;28;20526;-87
2022/04/08 01:13:08;;;;;;;4.03;1.30;;;11.80;37.60;;;;;;5089456;28;20501;-87
2022/04/08 01:15:36;;;;;;;3.63;1.20;;;12.00;38.60;;;;;;5091356;28;20548;-86
2022/04/08 01:18:05;;;;;;;6.93;1.67;;;12.10;38.50;;;;;;5090766;28;20462;-87
2022/04/08 01:20:33;;;;;;;4.37;1.10;;;11.90;37.50;;;;;;5089746;28;20444;-88
2022/04/08 01:23:00;;;;;;;2.20;0.97;;;11.80;38.10;;;;;;5091287;28;21089;-88
2022/04/08 01:25:28;;;;;;;8.40;1.50;;;11.70;38.40;;;;;;5088850;28;20992;-84
2022/04/08 01:27:55;;;;;;;9.50;1.50;;;11.60;38.70;;;;;;5090306;28;20447;-86
2022/04/08 01:30:22;;;;;;;3.50;1.00;;;11.80;38.70;;;;;;5074174;28;21039;-87
2022/04/08 01:32:49;;;;;;;2.17;1.60;;;11.80;38.30;;;;;;5075984;28;20816;-86
2022/04/08 01:35:16;;;;;;;2.60;0.80;;;12.00;38.30;;;;;;5073961;28;20471;-87
2022/04/08 01:37:44;;;;;;;7.97;1.73;;;12.00;38.10;;;;;;5091528;28;20529;-86
2022/04/08 01:40:11;;;;;;;13.77;5.07;;;12.00;38.80;;;;;;5073731;28;20459;-86
2022/04/08 01:42:39;;;;;;;5.00;1.53;;;12.10;39.00;;;;;;5090670;28;20462;-87
2022/04/08 01:45:08;;;;;;;8.27;1.97;;;12.00;39.00;;;;;;5081772;28;20714;-87
2022/04/08 01:47:34;;;;;;;8.70;2.40;;;11.90;38.70;;;;;;5087823;28;20458;-87
2022/04/08 01:50:02;;;;;;;4.90;2.50;;;11.90;39.10;;;;;;5088373;28;20446;-87
2022/04/08 01:52:28;;;;;;;7.17;2.23;;;11.70;39.10;;;;;;5088800;28;20455;-87
2022/04/08 01:54:55;;;;;;;6.90;3.63;;;11.60;39.50;;;;;;5090602;28;20517;-87
2022/04/08 01:57:23;;;;;;;4.77;3.30;;;11.70;40.00;;;;;;5090891;28;20823;-86
2022/04/08 01:59:53;;;;;;;6.83;3.00;;;11.80;40.10;;;;;;5091067;28;21057;-84
2022/04/08 02:02:20;;;;;;;5.07;1.70;;;11.90;39.70;;;;;;5056493;28;20454;-86
2022/04/08 02:04:48;;;;;;;6.50;2.00;;;11.80;39.80;;;;;;5064200;28;20467;-87
2022/04/08 02:07:15;;;;;;;8.90;2.50;;;11.80;39.70;;;;;;5082633;28;20458;-88
2022/04/08 02:09:42;;;;;;;7.13;2.77;;;11.90;40.00;;;;;;5088807;28;20542;-86
2022/04/08 02:12:10;;;;;;;8.17;3.10;;;11.90;40.70;;;;;;5094736;27;20483;-88
2022/04/08 02:14:38;;;;;;;6.80;3.33;;;11.90;40.10;;;;;;5090982;28;20468;-86
2022/04/08 02:17:06;;;;;;;6.77;1.40;;;11.90;39.90;;;;;;5089243;28;20452;-87
2022/04/08 02:19:33;;;;;;;7.60;4.13;;;12.00;39.90;;;;;;5087896;28;20942;-83
2022/04/08 02:22:00;;;;;;;1.50;1.30;;;11.90;39.70;;;;;;5089184;28;20434;-86
2022/04/08 02:24:28;;;;;;;6.50;2.70;;;11.70;39.80;;;;;;5088961;28;20459;-86
2022/04/08 02:26:55;;;;;;;7.20;2.33;;;11.70;40.30;;;;;;5074575;28;20454;-86
2022/04/08 02:29:22;;;;;;;5.97;2.17;;;11.80;40.50;;;;;;5088454;28;20951;-86
2022/04/08 02:31:49;;;;;;;3.73;1.53;;;11.60;40.60;;;;;;5087189;28;20543;-84
2022/04/08 02:34:18;;;;;;;6.90;1.70;;;11.60;40.30;;;;;;5106212;27;21034;-87
2022/04/08 02:36:45;;;;;;;1.73;1.10;;;11.50;40.60;;;;;;5087935;27;20478;-87
2022/04/08 02:39:12;;;;;;;4.57;1.63;;;11.50;41.00;;;;;;5088269;28;20462;-87
2022/04/08 02:41:39;;;;;;;7.13;2.13;;;11.70;41.20;;;;;;5081239;28;20963;-88
2022/04/08 02:44:07;;;;;;;6.30;1.67;;;11.80;40.90;;;;;;5075300;28;20940;-87
2022/04/08 02:46:34;;;;;;;3.77;1.17;;;11.90;41.40;;;;;;5074378;28;20451;-88
2022/04/08 02:49:00;;;;;;;9.60;2.47;;;12.00;40.40;;;;;;5086998;28;20970;-87
2022/04/08 02:51:29;;;;;;;3.70;1.80;;;11.90;40.70;;;;;;5080982;28;20492;-87
2022/04/08 02:53:56;;;;;;;3.10;1.43;;;11.70;40.70;;;;;;5071237;28;21006;-84
2022/04/08 02:56:23;;;;;;;3.10;1.80;;;11.70;40.80;;;;;;5071647;28;20918;-87
2022/04/08 02:58:50;;;;;;;12.93;2.27;;;11.70;41.10;;;;;;5080207;28;20460;-83
2022/04/08 03:01:17;;;;;;;6.90;2.00;;;11.70;41.50;;;;;;5076638;28;20440;-86
2022/04/08 03:03:44;;;;;;;16.43;4.33;;;11.70;41.00;;;;;;5089148;28;20566;-87
2022/04/08 03:06:10;;;;;;;15.33;4.13;;;11.60;41.10;;;;;;5089072;28;20453;-86
2022/04/08 03:08:39;;;;;;;8.63;2.40;;;11.70;41.90;;;;;;5082641;28;20470;-87
2022/04/08 03:11:06;;;;;;;5.93;1.90;;;11.70;41.40;;;;;;5088216;28;20461;-86
2022/04/08 03:13:33;;;;;;;3.80;2.20;;;11.60;41.30;;;;;;5090657;28;20621;-84
2022/04/08 03:16:00;;;;;;;10.10;2.70;;;11.50;41.70;;;;;;5088442;28;20497;-88
2022/04/08 03:18:27;;;;;;;9.37;5.33;;;11.40;41.70;;;;;;5090333;28;20511;-87
2022/04/08 03:20:55;;;;;;;4.50;2.00;;;11.30;41.90;;;;;;5090106;28;20448;-88
2022/04/08 03:23:21;;;;;;;10.00;2.23;;;11.30;41.90;;;;;;5080735;28;20478;-87
2022/04/08 03:25:50;;;;;;;10.43;3.10;;;11.20;42.60;;;;;;5072051;28;20452;-84
2022/04/08 03:28:17;;;;;;;3.57;1.63;;;11.40;42.80;;;;;;5073538;28;20975;-85
2022/04/08 03:30:44;;;;;;;3.60;0.90;;;11.40;42.60;;;;;;5087425;28;20443;-86
2022/04/08 03:33:11;;;;;;;8.10;2.90;;;11.50;42.10;;;;;;5089402;28;20466;-87
2022/04/08 03:35:37;;;;;;;3.77;2.00;;;11.50;42.30;;;;;;5090051;28;20467;-87
2022/04/08 03:38:05;;;;;;;7.87;3.17;;;11.40;42.40;;;;;;5085619;28;20913;-87
2022/04/08 03:40:32;;;;;;;5.60;1.93;;;11.40;42.70;;;;;;5088233;28;21064;-87
2022/04/08 03:43:00;;;;;;;9.20;3.27;;;11.50;42.50;;;;;;5073695;28;20459;-86
2022/04/08 03:45:27;;;;;;;5.27;2.87;;;11.50;42.70;;;;;;5090407;28;20470;-85
2022/04/08 03:47:54;;;;;;;12.00;2.20;;;11.70;42.80;;;;;;5087361;28;20444;-87
2022/04/08 03:50:21;;;;;;;13.17;3.97;;;11.70;42.90;;;;;;5087587;28;20490;-85
2022/04/08 03:52:48;;;;;;;14.90;7.07;;;11.70;42.60;;;;;;5078632;28;20482;-87
2022/04/08 03:55:16;;;;;;;8.30;2.57;;;11.70;43.10;;;;;;5086298;28;20566;-87
2022/04/08 03:57:43;;;;;;;8.07;1.10;;;11.70;43.20;;;;;;5088848;28;20459;-87
2022/04/08 04:00:12;;;;;;;7.97;2.40;;;11.60;43.30;;;;;;5095350;28;21153;-87
2022/04/08 04:02:39;;;;;;;5.47;2.30;;;11.70;43.50;;;;;;5079088;28;20469;-87
2022/04/08 04:05:06;;;;;;;7.00;2.57;;;11.70;43.40;;;;;;5072887;28;20462;-86
2022/04/08 04:07:34;;;;;;;3.10;2.40;;;11.70;43.50;;;;;;5077791;28;20854;-85
2022/04/08 04:10:02;;;;;;;12.40;4.23;;;11.60;43.80;;;;;;5096270;28;20835;-86
2022/04/08 04:12:29;;;;;;;7.50;2.80;;;11.50;43.90;;;;;;5089056;28;20443;-87
2022/04/08 04:14:56;;;;;;;4.13;1.87;;;11.30;43.70;;;;;;5083885;28;20472;-86
2022/04/08 04:17:27;;;;;;;4.97;2.33;;;11.40;43.80;;;;;;5105519;28;20463;-87
2022/04/08 04:19:54;;;;;;;7.07;1.80;;;11.50;44.10;;;;;;5088057;28;20509;-86
2022/04/08 04:22:20;;;;;;;10.87;3.40;;;11.40;44.50;;;;;;5087216;28;20474;-87
2022/04/08 04:24:48;;;;;;;10.93;4.00;;;11.30;44.90;;;;;;5085841;28;20472;-87
2022/04/08 04:27:14;;;;;;;8.30;3.90;;;11.50;46.20;;;;;;5070977;28;20439;-88
2022/04/08 04:29:41;;;;;;;7.07;4.60;;;11.60;46.10;;;;;;5085629;28;20446;-87
2022/04/08 04:32:09;;;;;;;10.27;4.20;;;11.60;46.80;;;;;;5086882;28;20462;-87
2022/04/08 04:34:38;;;;;;;8.40;3.80;;;11.60;46.90;;;;;;5073888;28;20475;-87
2022/04/08 04:37:08;;;;;;;13.50;4.60;;;11.60;46.60;;;;;;5098743;28;21174;-86
2022/04/08 04:39:35;;;;;;;5.70;2.40;;;11.80;47.20;;;;;;5091574;28;20456;-89
2022/04/08 04:42:03;;;;;;;4.53;2.30;;;11.60;45.80;;;;;;5095044;28;20454;-87
2022/04/08 04:44:30;;;;;;;5.17;2.27;;;11.70;46.50;;;;;;5073173;28;21006;-87
2022/04/08 04:46:56;;;;;;;2.40;1.53;;;11.80;46.70;;;;;;5084316;28;20454;-88
2022/04/08 04:49:24;;;;;;;5.87;2.50;;;11.90;46.80;;;;;;5089705;28;20981;-86
2022/04/08 04:51:52;;;;;;;6.63;2.23;;;11.40;48.30;;;;;;5090883;28;20455;-86
2022/04/08 04:54:19;;;;;;;3.17;1.40;;;11.30;50.00;;;;;;5091051;28;20460;-88
2022/04/08 04:56:46;;;;;;;5.80;1.40;;;11.30;50.40;;;;;;5076022;28;20478;-87
2022/04/08 04:59:13;;;;;;;2.43;1.53;;;11.50;50.50;;;;;;5082107;28;20462;-86
2022/04/08 05:01:40;;;;;;;10.27;3.00;;;11.50;50.40;;;;;;5090027;28;20451;-87
2022/04/08 05:04:07;;;;;;;3.70;1.90;;;11.60;50.20;;;;;;5082746;28;21278;-86
2022/04/08 05:06:34;;;;;;;12.13;2.77;;;11.50;50.70;;;;;;5089750;28;20960;-89
2022/04/08 05:09:05;;;;;;;6.93;4.77;;;11.30;50.80;;;;;;5073489;28;20450;-90
2022/04/08 05:11:32;;;;;;;23.57;15.40;;;11.30;51.60;;;;;;5072399;28;20455;-87
2022/04/08 05:14:00;;;;;;;5.20;1.80;;;11.50;51.10;;;;;;5087047;28;20941;-86
2022/04/08 05:16:27;;;;;;;3.90;2.27;;;11.60;50.60;;;;;;5090253;28;20468;-86
2022/04/08 05:18:54;;;;;;;5.40;3.87;;;11.70;51.00;;;;;;5089050;28;20469;-86
2022/04/08 05:21:22;;;;;;;5.00;2.27;;;11.90;50.60;;;;;;5088473;28;20443;-88
2022/04/08 05:23:49;;;;;;;4.83;2.80;;;12.10;50.60;;;;;;5095474;28;20471;-84
2022/04/08 05:26:18;;;;;;;6.30;4.63;;;12.20;50.40;;;;;;5088147;28;20517;-88
2022/04/08 05:28:45;;;;;;;6.43;5.53;;;12.40;50.30;;;;;;5087804;28;20799;-87
2022/04/08 05:31:12;;;;;;;7.70;3.00;;;12.30;49.50;;;;;;5087072;28;20766;-86
2022/04/08 05:33:39;;;;;;;3.57;2.43;;;12.30;49.60;;;;;;5087436;28;20894;-87
2022/04/08 05:36:06;;;;;;;5.87;2.57;;;12.40;49.90;;;;;;5085177;28;20476;-87
2022/04/08 05:38:34;;;;;;;4.60;3.43;;;12.40;49.30;;;;;;5084511;28;20439;-84
2022/04/08 05:41:01;;;;;;;8.90;2.77;;;12.60;49.60;;;;;;5087849;28;20451;-86
2022/04/08 05:43:29;;;;;;;5.77;3.87;;;12.80;49.50;;;;;;5085152;28;20475;-86
2022/04/08 05:45:56;;;;;;;14.97;11.73;;;12.90;49.60;;;;;;5069626;28;20951;-86
2022/04/08 05:48:23;;;;;;;19.97;15.70;;;12.90;48.80;;;;;;5089304;28;20449;-86
2022/04/08 05:50:50;;;;;;;7.77;7.00;;;13.00;49.70;;;;;;5089671;28;20461;-85
2022/04/08 05:53:17;;;;;;;4.83;3.00;;;13.10;49.20;;;;;;5078565;28;20458;-86
2022/04/08 05:55:45;;;;;;;8.30;3.33;;;13.20;48.70;;;;;;5087415;28;20452;-88
2022/04/08 05:58:12;;;;;;;8.70;2.50;;;13.20;48.50;;;;;;5085412;28;20467;-88
2022/04/08 06:00:40;;;;;;;5.00;2.40;;;13.20;48.60;;;;;;5079786;28;20888;-85
2022/04/08 06:03:08;;;;;;;3.17;2.90;;;12.80;49.30;;;;;;5086562;28;20505;-85
2022/04/08 06:05:35;;;;;;;6.93;2.57;;;12.90;49.10;;;;;;5089748;28;21030;-86
2022/04/08 06:08:02;;;;;;;3.77;2.63;;;12.80;48.60;;;;;;5085609;28;20455;-86
2022/04/08 06:10:29;;;;;;;4.40;2.73;;;12.70;48.90;;;;;;5087579;28;20443;-88
2022/04/08 06:12:56;;;;;;;7.43;2.77;;;12.80;49.40;;;;;;5081766;28;20467;-86
2022/04/08 06:15:24;;;;;;;7.17;2.27;;;12.80;48.30;;;;;;5072831;28;21003;-86
2022/04/08 06:17:54;;;;;;;10.60;3.67;;;12.60;48.10;;;;;;5086386;28;20472;-86
2022/04/08 06:20:21;;;;;;;5.40;3.90;;;12.30;46.60;;;;;;5086194;28;20955;-87
2022/04/08 06:22:49;;;;;;;5.33;2.87;;;12.30;46.20;;;;;;5086835;28;20465;-86
2022/04/08 06:25:17;;;;;;;2.07;1.80;;;12.20;46.30;;;;;;5088740;28;21031;-87
2022/04/08 06:27:45;;;;;;;6.43;3.27;;;12.20;46.60;;;;;;5085329;28;20444;-88
2022/04/08 06:30:14;;;;;;;4.07;2.60;;;12.30;46.50;;;;;;5085928;27;20950;-86
2022/04/08 06:32:43;;;;;;;12.00;3.30;;;12.20;45.90;;;;;;5086010;27;20597;-87
2022/04/08 06:35:12;;;;;;;10.93;3.37;;;12.30;46.80;;;;;;5086762;28;21035;-87
2022/04/08 06:37:40;;;;;;;11.10;3.60;;;12.20;46.30;;;;;;5086269;28;20463;-88
2022/04/08 06:40:09;;;;;;;4.37;1.83;;;12.10;45.90;;;;;;5100445;27;21310;-86
2022/04/08 06:42:36;;;;;;;5.47;2.47;;;11.90;45.90;;;;;;5083420;28;20448;-88
2022/04/08 06:45:04;;;;;;;5.40;2.43;;;12.00;46.20;;;;;;5086869;28;20855;-85
2022/04/08 06:47:31;;;;;;;5.30;3.30;;;12.20;45.90;;;;;;5058407;28;21341;-87
2022/04/08 06:49:58;;;;;;;9.87;2.97;;;12.20;46.10;;;;;;5088726;28;20443;-87
2022/04/08 06:52:27;;;;;;;5.37;2.30;;;12.30;45.90;;;;;;5078388;28;20447;-87
2022/04/08 06:54:54;;;;;;;2.33;1.57;;;12.30;45.50;;;;;;5087126;28;21261;-87
2022/04/08 06:57:20;;;;;;;6.17;1.87;;;12.10;45.70;;;;;;5087228;28;20552;-86
2022/04/08 06:59:47;;;;;;;6.60;2.20;;;12.30;46.50;;;;;;5083057;28;20924;-86
2022/04/08 07:02:14;;;;;;;10.30;2.27;;;12.40;45.60;;;;;;5087747;28;20452;-86
2022/04/08 07:04:41;;;;;;;8.20;2.57;;;12.40;45.30;;;;;;5089060;28;21009;-85
2022/04/08 07:07:08;;;;;;;9.60;1.87;;;12.20;45.10;;;;;;5087614;28;21969;-88
2022/04/08 07:09:37;;;;;;;2.73;2.00;;;12.30;45.90;;;;;;5088903;28;20501;-87
2022/04/08 07:12:04;;;;;;;6.23;2.30;;;12.40;45.50;;;;;;5085892;28;20447;-87
2022/04/08 07:14:31;;;;;;;4.93;1.77;;;12.50;45.60;;;;;;5103356;27;20968;-87
2022/04/08 07:16:58;;;;;;;9.63;2.17;;;12.50;45.50;;;;;;5072786;28;20455;-87
2022/04/08 07:19:25;;;;;;;7.07;2.00;;;12.40;45.20;;;;;;5087873;28;20990;-87
2022/04/08 07:21:52;;;;;;;5.40;2.40;;;12.50;45.40;;;;;;5087307;28;20459;-88
2022/04/08 07:24:19;;;;;;;10.53;2.23;;;12.30;45.20;;;;;;5086167;28;20932;-87
2022/04/08 07:26:48;;;;;;;8.83;2.43;;;12.40;45.30;;;;;;5075965;28;20477;-87
2022/04/08 07:29:14;;;;;;;2.63;1.80;;;12.50;45.70;;;;;;5102855;27;20457;-87
2022/04/08 07:31:41;;;;;;;4.00;2.30;;;12.50;45.90;;;;;;5083484;28;21087;-87
2022/04/08 07:34:08;;;;;;;4.70;2.20;;;12.50;44.80;;;;;;5087613;28;21079;-86
2022/04/08 07:36:35;;;;;;;4.30;2.43;;;12.40;44.70;;;;;;5072353;28;20494;-88
2022/04/08 07:39:03;;;;;;;2.50;1.70;;;12.60;46.10;;;;;;5085691;28;20563;-87
2022/04/08 07:41:30;;;;;;;5.60;2.20;;;12.60;45.10;;;;;;5078315;28;20470;-89
2022/04/08 07:43:58;;;;;;;3.53;2.20;;;12.60;45.00;;;;;;5088563;28;20480;-87
2022/04/08 07:46:25;;;;;;;4.90;2.20;;;12.70;45.00;;;;;;5087522;28;20454;-87
2022/04/08 07:48:52;;;;;;;4.43;1.80;;;13.10;45.60;;;;;;5086675;28;20448;-87
2022/04/08 07:51:19;;;;;;;12.83;2.87;;;13.20;44.20;;;;;;5053017;28;20452;-86
2022/04/08 07:53:46;;;;;;;13.80;2.70;;;13.20;44.20;;;;;;5089261;28;20997;-89
2022/04/08 07:56:13;;;;;;;5.80;2.43;;;13.40;44.10;;;;;;5090587;28;20461;-87
2022/04/08 07:58:40;;;;;;;5.60;3.17;;;13.40;43.70;;;;;;5087808;28;20444;-87
2022/04/08 08:01:09;;;;;;;3.83;2.73;;;13.50;43.50;;;;;;5085364;27;20456;-88
2022/04/08 08:03:36;;;;;;;6.80;2.80;;;13.50;43.50;;;;;;5068773;28;20447;-87
2022/04/08 08:06:03;;;;;;;6.90;2.33;;;13.40;43.60;;;;;;5085034;28;20443;-89
2022/04/08 08:08:30;;;;;;;3.63;3.00;;;13.60;43.30;;;;;;5077862;28;21111;-89
2022/04/08 08:10:58;;;;;;;3.67;2.47;;;13.60;43.60;;;;;;5085272;28;21025;-87
2022/04/08 08:13:24;;;;;;;3.40;2.27;;;13.50;43.60;;;;;;5073173;28;21576;-87
2022/04/08 08:15:52;;;;;;;7.83;2.33;;;13.50;42.50;;;;;;5086681;28;20911;-88
2022/04/08 08:18:21;;;;;;;8.50;2.73;;;13.40;43.30;;;;;;5069428;28;20486;-87
2022/04/08 08:20:49;;;;;;;3.67;2.40;;;13.30;43.00;;;;;;5085974;28;20458;-86
2022/04/08 08:23:16;;;;;;;4.60;3.90;;;13.30;43.00;;;;;;5092437;28;20455;-87
2022/04/08 08:25:44;;;;;;;5.40;2.47;;;13.20;43.10;;;;;;5053360;28;20443;-87
2022/04/08 08:28:11;;;;;;;4.20;2.00;;;13.40;43.50;;;;;;5089992;28;20445;-87
2022/04/08 08:30:39;;;;;;;9.77;3.00;;;13.50;43.00;;;;;;5086992;28;20459;-88
2022/04/08 08:33:06;;;;;;;3.63;2.60;;;13.30;42.50;;;;;;5086881;28;20456;-86
2022/04/08 08:35:35;;;;;;;5.07;2.43;;;13.50;42.90;;;;;;5086640;28;20478;-85
2022/04/08 08:38:02;;;;;;;5.73;2.77;;;13.60;42.60;;;;;;5088365;28;20475;-88
2022/04/08 08:40:31;;;;;;;5.20;2.40;;;13.40;43.20;;;;;;5062238;28;20447;-86
2022/04/08 08:42:59;;;;;;;137.23;56.37;;;13.60;43.10;;;;;;5075340;28;20456;-90
2022/04/08 08:45:29;;;;;;;50.87;23.60;;;13.80;43.20;;;;;;5070942;28;20467;-88
2022/04/08 08:48:00;;;;;;;76.40;29.37;;;13.80;42.60;;;;;;5086667;28;20447;-88
2022/04/08 08:50:28;;;;;;;5.53;2.27;;;13.80;43.10;;;;;;5085639;28;20446;-88
2022/04/08 08:52:58;;;;;;;5.07;2.37;;;13.80;42.70;;;;;;5088333;28;20452;-88
2022/04/08 08:55:25;;;;;;;4.80;2.00;;;13.70;42.90;;;;;;5087074;28;20472;-89
2022/04/08 08:57:52;;;;;;;7.33;2.37;;;13.80;43.00;;;;;;5084751;28;20466;-87
2022/04/08 09:00:23;;;;;;;4.17;2.50;;;13.90;42.40;;;;;;5084114;28;20825;-88
2022/04/08 09:02:52;;;;;;;7.30;2.40;;;13.80;41.90;;;;;;5084118;28;20454;-87
2022/04/08 09:05:20;;;;;;;10.93;2.77;;;13.80;42.00;;;;;;5086007;28;20470;-88
2022/04/08 09:07:59;;;;;;;6.00;2.43;;;13.90;41.90;;;;;;5068146;28;20466;-88
2022/04/08 09:10:28;;;;;;;6.13;2.63;;;13.90;42.00;;;;;;5089179;28;20447;-88
2022/04/08 09:12:55;;;;;;;4.17;2.57;;;14.20;42.10;;;;;;5070964;28;20451;-88
2022/04/08 09:15:22;;;;;;;3.87;1.63;;;14.20;42.20;;;;;;5085023;28;20467;-88
2022/04/08 09:17:49;;;;;;;3.47;2.90;;;14.00;39.80;;;;;;5084452;28;20998;-88
2022/04/08 09:20:16;;;;;;;3.77;2.03;;;13.80;40.20;;;;;;5074388;28;20459;-88
2022/04/08 09:22:52;;;;;;;6.60;2.20;;;13.70;41.20;;;;;;5083863;28;20465;-86
2022/04/08 09:25:25;;;;;;;1.70;1.60;;;13.80;40.70;;;;;;5104424;27;21309;-88
2022/04/08 09:27:52;;;;;;;2.40;2.20;;;14.00;40.60;;;;;;5087497;28;21405;-87
2022/04/08 09:30:20;;;;;;;5.23;1.90;;;13.90;42.10;;;;;;5080416;28;20462;-87
2022/04/08 09:32:47;;;;;;;3.97;2.87;;;13.80;41.00;;;;;;5087015;27;20455;-88
2022/04/08 09:35:18;;;;;;;3.60;1.80;;;13.50;42.60;;;;;;5090000;28;20980;-87
2022/04/08 09:37:59;;;;;;;5.40;4.20;;;13.40;42.60;;;;;;5087564;28;20488;-89
2022/04/08 09:40:34;;;;;;;5.03;2.37;;;13.40;42.30;;;;;;5090309;28;20450;-87
2022/04/08 09:43:01;;;;;;;5.00;2.80;;;13.40;41.50;;;;;;5087140;28;20521;-88
2022/04/08 09:45:30;;;;;;;2.30;1.77;;;13.50;42.10;;;;;;5088458;28;20471;-88
2022/04/08 09:47:58;;;;;;;6.17;2.80;;;13.70;42.00;;;;;;5089672;28;20522;-88
2022/04/08 09:50:26;;;;;;;5.43;2.17;;;13.70;43.50;;;;;;5082760;28;20447;-86
2022/04/08 09:52:53;;;;;;;2.23;1.67;;;13.70;42.60;;;;;;5088386;28;21937;-87
2022/04/08 09:55:23;;;;;;;3.47;2.00;;;13.60;43.30;;;;;;5086413;28;20521;-86
2022/04/08 09:57:56;;;;;;;4.43;1.90;;;13.40;46.00;;;;;;5087309;28;20700;-87
2022/04/08 10:00:25;;;;;;;3.90;2.50;;;13.20;46.90;;;;;;5079283;28;20846;-87
2022/04/08 10:02:54;;;;;;;8.73;2.60;;;13.00;49.60;;;;;;5087112;28;20483;-87
2022/04/08 10:05:23;;;;;;;5.40;2.43;;;13.10;50.00;;;;;;5085642;28;21007;-86
2022/04/08 10:07:53;;;;;;;10.03;2.57;;;13.10;49.60;;;;;;5086496;28;20471;-87
2022/04/08 10:10:24;;;;;;;4.20;2.80;;;13.20;49.10;;;;;;5090604;28;21025;-86
2022/04/08 10:13:08;;;;;;;4.50;1.87;;;13.10;51.00;;;;;;5077185;28;21008;-86
2022/04/08 10:15:39;;;;;;;3.33;2.33;;;13.00;50.80;;;;;;5088259;28;20474;-87
2022/04/08 10:18:07;;;;;;;5.13;2.63;;;13.00;51.30;;;;;;5068553;28;20491;-87
2022/04/08 10:20:35;;;;;;;5.00;2.80;;;13.10;52.10;;;;;;5076829;28;20481;-87
2022/04/08 10:23:06;;;;;;;11.80;2.70;;;13.10;51.00;;;;;;5071725;28;20600;-87
2022/04/08 10:25:39;;;;;;;7.37;2.90;;;13.10;51.20;;;;;;5077282;28;20460;-88
2022/04/08 10:28:08;;;;;;;5.17;2.80;;;13.20;51.60;;;;;;5063014;28;20551;-89
2022/04/08 10:30:36;;;;;;;2.43;1.70;;;13.40;51.60;;;;;;5086728;28;21139;-88
2022/04/08 10:33:07;;;;;;;6.17;2.33;;;13.60;50.90;;;;;;5087406;28;20553;-88
2022/04/08 10:35:34;;;;;;;4.00;2.50;;;13.50;50.60;;;;;;5085022;28;20934;-87
2022/04/08 10:38:03;;;;;;;5.30;2.70;;;13.40;51.10;;;;;;5071372;28;20463;-87
2022/04/08 10:40:32;;;;;;;11.83;4.63;;;13.60;52.30;;;;;;5087794;28;20566;-88
2022/04/08 10:43:01;;;;;;;7.10;2.83;;;13.80;52.30;;;;;;5088067;28;20454;-87
2022/04/08 10:45:30;;;;;;;7.40;2.93;;;13.40;49.50;;;;;;5072038;28;21029;-88
2022/04/08 10:48:01;;;;;;;2.83;2.10;;;13.60;51.50;;;;;;5085875;28;20440;-88
2022/04/08 10:50:30;;;;;;;9.27;2.30;;;13.80;50.90;;;;;;5068617;28;20454;-88
2022/04/08 10:53:05;;;;;;;2.37;1.73;;;13.30;50.00;;;;;;5081833;28;20455;-87
2022/04/08 10:55:32;;;;;;;3.37;2.30;;;13.40;51.40;;;;;;5087329;28;20459;-87
2022/04/08 10:58:00;;;;;;;3.40;1.90;;;13.60;50.70;;;;;;5087478;28;20467;-88
2022/04/08 11:00:39;;;;;;;5.30;2.20;;;13.80;51.00;;;;;;5073421;28;20447;-86
2022/04/08 11:03:06;;;;;;;7.97;2.57;;;13.80;50.70;;;;;;5068859;28;20463;-87
2022/04/08 11:05:38;;;;;;;3.37;1.87;;;13.50;51.50;;;;;;5090263;28;20447;-86
2022/04/08 11:08:06;;;;;;;6.00;1.93;;;13.50;51.80;;;;;;5070154;28;20444;-87
2022/04/08 11:10:33;;;;;;;4.30;2.27;;;13.50;51.50;;;;;;5088774;28;20459;-86
2022/04/08 11:13:00;;;;;;;2.43;1.70;;;13.60;51.80;;;;;;5072125;28;21031;-88
2022/04/08 11:15:30;;;;;;;7.27;2.20;;;13.70;51.60;;;;;;5088710;28;20479;-88
2022/04/08 11:18:00;;;;;;;1.80;1.70;;;13.70;51.60;;;;;;5071499;28;20520;-88
2022/04/08 11:20:27;;;;;;;2.93;2.57;;;13.70;51.50;;;;;;5089423;28;20528;-87
2022/04/08 11:22:56;;;;;;;9.03;1.37;;;13.40;51.70;;;;;;5055113;28;20535;-87
2022/04/08 11:25:24;;;;;;;3.60;2.83;;;13.30;52.50;;;;;;5089586;28;20489;-88
2022/04/08 11:28:02;;;;;;;4.03;1.77;;;13.40;52.50;;;;;;5088841;28;21228;-88
2022/04/08 11:30:33;;;;;;;3.93;1.70;;;13.20;52.10;;;;;;5086818;28;20465;-88
2022/04/08 11:33:01;;;;;;;3.87;2.00;;;13.20;52.50;;;;;;5088601;28;20460;-89
2022/04/08 11:35:31;;;;;;;17.73;9.43;;;13.00;52.30;;;;;;5073573;28;20474;-88
2022/04/08 11:37:58;;;;;;;9.43;4.17;;;13.10;52.70;;;;;;5095177;28;20466;-88
2022/04/08 11:40:25;;;;;;;5.17;3.13;;;12.90;52.50;;;;;;5080025;28;20454;-87
2022/04/08 11:42:59;;;;;;;2.83;1.43;;;12.70;53.00;;;;;;5088448;28;20451;-88
2022/04/08 11:45:26;;;;;;;2.90;2.60;;;12.40;53.40;;;;;;5085514;28;20466;-87
2022/04/08 11:47:54;;;;;;;9.23;3.00;;;12.20;54.40;;;;;;5078647;28;20459;-88
2022/04/08 11:50:26;;;;;;;2.57;1.70;;;12.10;54.10;;;;;;5088596;28;20450;-88
2022/04/08 11:52:54;;;;;;;4.23;2.17;;;12.50;54.10;;;;;;5069807;28;22203;-88
2022/04/08 11:55:24;;;;;;;4.27;2.67;;;12.70;54.90;;;;;;5079545;28;20532;-89
2022/04/08 11:57:52;;;;;;;6.53;5.60;;;12.90;53.90;;;;;;5086444;28;20452;-88
2022/04/08 12:00:26;;;;;;;7.50;6.30;;;13.00;53.10;;;;;;5070115;28;20446;-85
2022/04/08 12:02:56;;;;;;;8.00;5.10;;;13.10;52.70;;;;;;5070851;28;21013;-88
2022/04/08 12:05:27;;;;;;;21.23;14.37;;;12.60;53.00;;;;;;5087515;28;20553;-88
2022/04/08 12:07:56;;;;;;;7.30;3.87;;;12.60;53.90;;;;;;5085926;28;20447;-88
2022/04/08 12:10:24;;;;;;;6.53;5.67;;;12.80;53.30;;;;;;5098657;28;20537;-88
2022/04/08 12:12:52;;;;;;;16.00;8.47;;;12.80;54.00;;;;;;5088725;28;20454;-88
2022/04/08 12:15:22;;;;;;;8.63;5.80;;;12.80;54.40;;;;;;5094352;28;20510;-88
2022/04/08 12:17:49;;;;;;;5.23;2.83;;;12.60;54.20;;;;;;5088668;28;20475;-86
2022/04/08 12:20:19;;;;;;;2.47;1.47;;;12.50;54.60;;;;;;5079482;28;20916;-88
2022/04/08 12:22:47;;;;;;;3.10;2.37;;;12.40;54.50;;;;;;5086682;28;20431;-88
2022/04/08 12:25:17;;;;;;;2.50;1.30;;;12.50;54.80;;;;;;5054048;28;20471;-88
2022/04/08 12:27:44;;;;;;;4.37;3.63;;;12.60;53.40;;;;;;5088172;28;20474;-88
2022/04/08 12:30:11;;;;;;;3.23;1.50;;;12.80;52.80;;;;;;5079146;28;20451;-89
2022/04/08 12:32:42;;;;;;;3.93;1.63;;;12.70;52.40;;;;;;5071201;28;20522;-88
2022/04/08 12:35:11;;;;;;;1.63;1.27;;;12.80;53.60;;;;;;5072165;28;20833;-88
2022/04/08 12:37:39;;;;;;;3.47;1.80;;;12.90;53.20;;;;;;5086737;28;20448;-87
2022/04/08 12:40:10;;;;;;;5.97;5.03;;;12.90;53.00;;;;;;5076320;28;20490;-89
2022/04/08 12:42:38;;;;;;;4.73;4.30;;;12.70;52.50;;;;;;5087743;28;20793;-87
2022/04/08 12:45:07;;;;;;;9.03;8.23;;;12.60;52.10;;;;;;5069808;28;20467;-89
2022/04/08 12:47:35;;;;;;;3.67;1.87;;;12.70;52.60;;;;;;5093377;28;21025;-89
2022/04/08 12:50:02;;;;;;;1.43;1.33;;;12.50;53.70;;;;;;5074941;28;20453;-88